LTBU/TEQ METAR and TAF weather

Enter ICAO airport designator
Station Type Date Time Source
LTBU METAR 2020/04/05 21:50 UTC NOAA

LTBU 052150Z 04027G38KT 9999 SCT030 BKN080 08/04 Q1019


Station Type Date Time Source
LTBU Decoded METAR 2020/04/05 21:50 UTC NOAA

Corlu, Turkey (LTBU) 41-08N 027-55E
Apr 05, 2020 - 05:50 PM EDT / 2020.04.05 2150 UTC
Wind: from the NE (040 degrees) at 31 MPH (27 KT) gusting to 44 MPH (38 KT):0
Visibility: greater than 7 mile(s):0
Sky conditions: mostly cloudy
Temperature: 46 F (8 C)
Dew Point: 39 F (4 C)
Relative Humidity: 75%
Pressure (altimeter): 30.09 in. Hg (1019 hPa)
ob: LTBU 052150Z 04027G38KT 9999 SCT030 BKN080 08/04 Q1019
cycle: 22

Station Type Date Time Source
LTBU TAF 2020/04/05 18:03 UTC NOAA

TAF LTBU 051640Z 0518/0618 04030G45KT 7000 -SHRA SCT010 BKN025 BKN080
TEMPO 0518/0522 4000 SHRA BKN004 BKN022
TEMPO 0602/0606 4000 SHRA BKN004 BKN022
BECMG 0610/0613 SCT025

Example: see airport list